createdAt,value
2023-04-26T00:00:09.156Z,66.74
2023-04-26T00:01:09.062Z,66.36
2023-04-26T00:02:09.058Z,66.56
2023-04-26T00:03:09.153Z,66.56
2023-04-26T00:04:09.373Z,66.97
2023-04-26T00:05:09.506Z,66.97
2023-04-26T00:06:09.018Z,66.97
2023-04-26T00:07:09.028Z,67.08
2023-04-26T00:08:09.005Z,67.80
2023-04-26T00:09:08.995Z,67.80
2023-04-26T00:10:08.967Z,67.70
2023-04-26T00:11:08.947Z,67.60
2023-04-26T00:12:08.942Z,67.08
2023-04-26T00:13:08.941Z,67.52
2023-04-26T00:14:08.956Z,67.21
2023-04-26T00:15:08.915Z,66.91
2023-04-26T00:16:08.981Z,67.52
2023-04-26T00:17:08.883Z,67.21
2023-04-26T00:18:08.915Z,67.60
2023-04-26T00:19:08.908Z,67.29
2023-04-26T00:20:08.878Z,67.39
2023-04-26T00:21:08.861Z,67.42
2023-04-26T00:22:08.838Z,67.18
2023-04-26T00:23:08.822Z,67.08
2023-04-26T00:24:08.855Z,67.08
2023-04-26T00:25:08.830Z,67.73
2023-04-26T00:26:08.787Z,67.39
2023-04-26T00:27:08.783Z,67.60
2023-04-26T00:28:08.781Z,67.08
2023-04-26T00:29:08.789Z,67.73
2023-04-26T00:30:08.751Z,67.90
2023-04-26T00:31:08.749Z,68.04
2023-04-26T00:32:08.793Z,68.21
2023-04-26T00:33:08.955Z,67.90
2023-04-26T00:34:08.739Z,67.90
2023-04-26T00:35:08.739Z,67.80
2023-04-26T00:36:08.698Z,67.80
2023-04-26T00:37:08.678Z,68.01
2023-04-26T00:38:08.666Z,68.21
2023-04-26T00:39:08.672Z,67.80
2023-04-26T00:40:08.733Z,67.63
2023-04-26T00:41:08.641Z,68.24
2023-04-26T00:42:08.630Z,67.73
2023-04-26T00:43:08.622Z,67.93
2023-04-26T00:44:08.693Z,68.24
2023-04-26T00:45:08.590Z,68.48
2023-04-26T00:46:08.673Z,69.00
2023-04-26T00:47:08.582Z,69.00
2023-04-26T00:48:08.686Z,69.00
2023-04-26T00:49:08.608Z,69.20
2023-04-26T00:50:08.568Z,69.31
2023-04-26T00:51:08.552Z,69.34
2023-04-26T00:52:08.518Z,69.13
2023-04-26T00:53:08.513Z,69.75
2023-04-26T00:54:08.515Z,69.34
2023-04-26T00:55:08.497Z,69.31
2023-04-26T00:56:08.571Z,69.72
2023-04-26T00:57:08.462Z,69.62
2023-04-26T00:58:08.453Z,68.79
2023-04-26T00:59:08.462Z,68.79
2023-04-26T01:00:08.436Z,69.20
2023-04-26T01:01:08.456Z,69.00
2023-04-26T01:02:08.505Z,68.90
2023-04-26T01:03:08.671Z,69.10
2023-04-26T01:04:08.635Z,69.13
2023-04-26T01:05:08.376Z,68.79
2023-04-26T01:06:08.363Z,69.96
2023-04-26T01:07:08.351Z,70.27
2023-04-26T01:08:08.352Z,70.37
2023-04-26T01:09:08.354Z,69.93
2023-04-26T01:10:08.325Z,69.93
2023-04-26T01:11:08.323Z,70.03
2023-04-26T01:12:08.341Z,70.13
2023-04-26T01:13:08.301Z,70.06
2023-04-26T01:14:08.312Z,70.57
2023-04-26T01:15:08.270Z,70.57
2023-04-26T01:16:08.261Z,70.37
2023-04-26T01:17:08.459Z,70.27
2023-04-26T01:18:08.239Z,70.37
2023-04-26T01:19:08.265Z,70.27
2023-04-26T01:20:08.223Z,70.37
2023-04-26T01:21:08.237Z,70.47
2023-04-26T01:22:08.209Z,70.68
2023-04-26T01:23:08.184Z,70.47
2023-04-26T01:24:08.189Z,70.99
2023-04-26T01:25:08.197Z,70.89
2023-04-26T01:26:08.161Z,70.68
2023-04-26T01:27:08.171Z,71.02
2023-04-26T01:28:08.181Z,70.78
2023-04-26T01:29:08.134Z,71.12
2023-04-26T01:30:08.113Z,71.44
2023-04-26T01:31:08.122Z,71.33
2023-04-26T01:32:08.089Z,71.33
2023-04-26T01:33:08.100Z,71.33
2023-04-26T01:34:08.120Z,71.02
2023-04-26T01:35:08.057Z,71.12
2023-04-26T01:36:08.041Z,71.12
2023-04-26T01:37:08.028Z,71.67
2023-04-26T01:38:08.023Z,72.50
2023-04-26T01:39:08.020Z,72.71
2023-04-26T01:40:08.059Z,72.09
2023-04-26T01:41:09.801Z,71.88
2023-04-26T01:42:07.984Z,72.19
2023-04-26T01:43:07.980Z,72.09
2023-04-26T01:44:08.594Z,72.09
2023-04-26T01:45:07.969Z,72.40
2023-04-26T01:46:07.980Z,72.50
2023-04-26T01:47:07.946Z,72.50
2023-04-26T01:48:07.932Z,72.50
2023-04-26T01:49:07.953Z,72.19
2023-04-26T01:50:07.892Z,72.50
2023-04-26T01:51:07.879Z,71.98
2023-04-26T01:52:07.866Z,72.30
2023-04-26T01:53:07.860Z,72.71
2023-04-26T01:54:07.889Z,72.09
2023-04-26T01:55:07.840Z,72.50
2023-04-26T01:56:07.831Z,72.50
2023-04-26T01:57:07.831Z,72.19
2023-04-26T01:58:07.805Z,72.81
2023-04-26T01:59:07.822Z,72.61
2023-04-26T02:00:07.804Z,71.88
2023-04-26T02:01:07.830Z,71.88
2023-04-26T02:02:07.872Z,72.09
2023-04-26T02:03:07.898Z,72.61
2023-04-26T02:04:07.912Z,72.61
2023-04-26T02:05:07.745Z,72.81
2023-04-26T02:06:07.723Z,71.78
2023-04-26T02:07:07.708Z,72.40
2023-04-26T02:08:07.695Z,72.40
2023-04-26T02:09:07.696Z,72.61
2023-04-26T02:10:07.680Z,72.40
2023-04-26T02:11:07.667Z,72.61
2023-04-26T02:12:07.657Z,72.40
2023-04-26T02:13:07.652Z,73.22
2023-04-26T02:14:07.652Z,72.71
2023-04-26T02:15:07.637Z,72.50
2023-04-26T02:16:07.844Z,72.30
2023-04-26T02:17:07.612Z,72.61
2023-04-26T02:18:07.683Z,72.91
2023-04-26T02:19:07.616Z,71.88
2023-04-26T02:20:07.572Z,72.50
2023-04-26T02:21:07.576Z,72.30
2023-04-26T02:22:07.551Z,72.09
2023-04-26T02:23:07.572Z,72.81
2023-04-26T02:24:07.541Z,72.85
2023-04-26T02:25:07.557Z,72.61
2023-04-26T02:26:07.546Z,72.81
2023-04-26T02:27:07.512Z,72.71
2023-04-26T02:28:07.512Z,72.40
2023-04-26T02:29:07.560Z,72.61
2023-04-26T02:30:07.492Z,72.71
2023-04-26T02:31:07.486Z,72.50
2023-04-26T02:32:07.460Z,71.98
2023-04-26T02:33:07.478Z,72.40
2023-04-26T02:34:07.438Z,72.50
2023-04-26T02:35:07.422Z,72.81
2023-04-26T02:36:07.396Z,72.50
2023-04-26T02:37:07.402Z,72.91
2023-04-26T02:38:07.428Z,73.16
2023-04-26T02:39:07.373Z,72.91
2023-04-26T02:40:07.410Z,73.36
2023-04-26T02:41:07.342Z,73.02
2023-04-26T02:42:07.333Z,73.16
2023-04-26T02:43:07.336Z,72.71
2023-04-26T02:44:07.328Z,72.91
2023-04-26T02:45:07.307Z,73.43
2023-04-26T02:46:07.287Z,73.02
2023-04-26T02:47:07.347Z,73.33
2023-04-26T02:48:07.483Z,72.91
2023-04-26T02:49:07.324Z,72.85
2023-04-26T02:50:07.272Z,73.67
2023-04-26T02:51:07.266Z,73.57
2023-04-26T02:52:07.244Z,73.98
2023-04-26T02:53:07.239Z,73.88
2023-04-26T02:54:07.208Z,73.91
2023-04-26T02:55:07.226Z,74.08
2023-04-26T02:56:07.176Z,74.12
2023-04-26T02:57:07.173Z,73.98
2023-04-26T02:58:07.164Z,73.98
2023-04-26T02:59:07.157Z,73.88
2023-04-26T03:00:07.198Z,74.22
2023-04-26T03:01:07.219Z,74.50
2023-04-26T03:02:07.144Z,74.29
2023-04-26T03:03:07.300Z,74.29
2023-04-26T03:04:07.218Z,74.08
2023-04-26T03:05:07.098Z,74.29
2023-04-26T03:06:07.071Z,73.77
2023-04-26T03:07:07.077Z,73.88
2023-04-26T03:08:07.051Z,73.85
2023-04-26T03:09:07.043Z,73.85
2023-04-26T03:10:07.058Z,73.43
2023-04-26T03:11:07.021Z,73.67
2023-04-26T03:12:07.010Z,74.08
2023-04-26T03:13:07.003Z,73.77
2023-04-26T03:14:07.009Z,74.29
2023-04-26T03:15:06.991Z,74.19
2023-04-26T03:16:07.010Z,74.50
2023-04-26T03:17:06.965Z,74.40
2023-04-26T03:18:06.981Z,74.60
2023-04-26T03:19:06.955Z,74.53
2023-04-26T03:20:07.025Z,75.05
2023-04-26T03:21:06.907Z,75.15
2023-04-26T03:22:06.918Z,75.05
2023-04-26T03:23:06.891Z,75.05
2023-04-26T03:24:06.923Z,75.15
2023-04-26T03:25:06.869Z,75.36
2023-04-26T03:26:06.857Z,75.78
2023-04-26T03:27:06.848Z,75.78
2023-04-26T03:28:06.842Z,75.67
2023-04-26T03:29:06.844Z,75.57
2023-04-26T03:30:06.837Z,75.67
2023-04-26T03:31:06.807Z,75.57
2023-04-26T03:32:06.834Z,75.46
2023-04-26T03:33:06.840Z,75.36
2023-04-26T03:34:06.786Z,75.57
2023-04-26T03:35:06.780Z,75.15
2023-04-26T03:36:06.777Z,75.12
2023-04-26T03:37:06.747Z,74.95
2023-04-26T03:38:06.732Z,74.95
2023-04-26T03:39:06.763Z,74.95
2023-04-26T03:40:06.714Z,75.05
2023-04-26T03:41:06.721Z,75.05
2023-04-26T03:42:06.694Z,75.01
2023-04-26T03:43:06.680Z,74.91
2023-04-26T03:44:06.688Z,74.95
2023-04-26T03:45:06.664Z,74.95
2023-04-26T03:46:06.727Z,74.91
2023-04-26T03:47:06.635Z,74.84
2023-04-26T03:48:06.656Z,75.05
2023-04-26T03:49:06.650Z,75.12
2023-04-26T03:50:06.603Z,74.91
2023-04-26T03:51:06.604Z,75.01
2023-04-26T03:52:06.616Z,75.22
2023-04-26T03:53:06.570Z,75.15
2023-04-26T03:54:06.599Z,75.26
2023-04-26T03:55:06.559Z,75.12
2023-04-26T03:56:06.538Z,75.01
2023-04-26T03:57:06.532Z,74.91
2023-04-26T03:58:06.526Z,74.91
2023-04-26T03:59:06.542Z,74.91
2023-04-26T04:00:06.503Z,74.81
2023-04-26T04:01:06.507Z,74.40
2023-04-26T04:02:06.510Z,74.50
2023-04-26T04:03:06.589Z,74.67
2023-04-26T04:04:06.641Z,74.60
2023-04-26T04:05:06.649Z,74.71
2023-04-26T04:06:06.430Z,75.01
2023-04-26T04:07:06.419Z,74.50
2023-04-26T04:08:06.507Z,74.84
2023-04-26T04:09:06.411Z,75.05
2023-04-26T04:10:06.417Z,75.26
2023-04-26T04:11:06.398Z,75.12
2023-04-26T04:12:06.370Z,75.12
2023-04-26T04:13:06.351Z,74.91
2023-04-26T04:14:06.361Z,75.01
2023-04-26T04:15:06.332Z,74.36
2023-04-26T04:16:06.358Z,74.46
2023-04-26T04:17:06.312Z,73.85
2023-04-26T04:18:06.317Z,73.95
2023-04-26T04:19:06.311Z,73.33
2023-04-26T04:20:06.291Z,73.54
2023-04-26T04:21:06.270Z,73.60
2023-04-26T04:22:06.278Z,72.67
2023-04-26T04:23:06.271Z,72.88
2023-04-26T04:24:06.341Z,73.29
2023-04-26T04:25:06.222Z,72.33
2023-04-26T04:26:06.214Z,72.54
2023-04-26T04:27:06.206Z,72.64
2023-04-26T04:28:06.198Z,72.67
2023-04-26T04:29:06.224Z,72.44
2023-04-26T04:30:06.181Z,72.74
2023-04-26T04:31:14.204Z,73.26
2023-04-26T04:32:06.144Z,72.64
2023-04-26T04:33:06.155Z,71.81
2023-04-26T04:34:06.132Z,72.19
2023-04-26T04:35:06.119Z,71.58
2023-04-26T04:36:06.114Z,71.68
2023-04-26T04:37:06.096Z,71.03
2023-04-26T04:38:06.082Z,71.03
2023-04-26T04:39:06.091Z,71.23
2023-04-26T04:40:06.133Z,70.68
2023-04-26T04:41:06.050Z,70.37
2023-04-26T04:42:06.051Z,70.17
2023-04-26T04:43:06.026Z,69.83
2023-04-26T04:44:06.029Z,69.01
2023-04-26T04:46:23.202Z,68.70
2023-04-26T04:47:23.151Z,69.21
2023-04-26T04:48:23.131Z,69.18
2023-04-26T04:49:23.146Z,68.87
2023-04-26T04:50:23.109Z,69.18
2023-04-26T04:51:23.108Z,69.07
2023-04-26T04:52:23.127Z,69.07
2023-04-26T04:53:23.080Z,68.56
2023-04-26T04:54:23.082Z,68.02
2023-04-26T04:55:23.126Z,68.02
2023-04-26T04:56:23.046Z,67.71
2023-04-26T04:57:23.036Z,67.71
2023-04-26T04:58:23.040Z,67.68
2023-04-26T04:59:23.021Z,67.36
2023-04-26T05:00:23.005Z,66.82
2023-04-26T05:01:23.021Z,66.82
2023-04-26T05:02:23.099Z,66.51
2023-04-26T05:03:23.224Z,65.89
2023-04-26T05:04:23.284Z,65.59
2023-04-26T05:05:22.952Z,65.56
2023-04-26T05:06:22.964Z,65.86
2023-04-26T05:07:24.433Z,65.42
2023-04-26T05:08:22.931Z,65.32
2023-04-26T05:09:22.912Z,65.12
2023-04-26T05:10:22.898Z,64.81
2023-04-26T05:11:22.905Z,64.70
2023-04-26T05:12:22.875Z,64.40
2023-04-26T05:13:22.907Z,64.16
2023-04-26T05:14:22.858Z,64.37
2023-04-26T05:15:22.853Z,64.47
2023-04-26T05:16:23.012Z,64.26
2023-04-26T05:17:22.840Z,64.47
2023-04-26T05:18:22.820Z,64.54
2023-04-26T05:19:22.812Z,64.85
2023-04-26T05:20:22.790Z,63.31
2023-04-26T05:21:22.782Z,63.51
2023-04-26T05:22:22.768Z,63.59
2023-04-26T05:23:22.783Z,63.18
2023-04-26T05:24:22.750Z,63.18
2023-04-26T05:25:23.036Z,63.21
2023-04-26T05:26:22.722Z,63.21
2023-04-26T05:27:22.834Z,63.10
2023-04-26T05:28:22.719Z,63.18
2023-04-26T05:29:22.696Z,63.39
2023-04-26T05:30:22.682Z,63.28
2023-04-26T05:31:22.777Z,63.18
2023-04-26T05:32:22.658Z,62.54
2023-04-26T05:33:22.684Z,61.71
2023-04-26T05:34:22.676Z,61.38
2023-04-26T05:35:22.633Z,61.38
2023-04-26T05:36:22.629Z,61.07
2023-04-26T05:37:22.617Z,61.15
2023-04-26T05:38:22.651Z,60.94
2023-04-26T05:39:22.582Z,60.60
2023-04-26T05:40:22.573Z,60.50
2023-04-26T05:41:22.569Z,60.40
2023-04-26T05:42:22.555Z,59.55
2023-04-26T05:43:22.574Z,59.32
2023-04-26T05:44:22.532Z,59.73
2023-04-26T05:45:22.521Z,59.19
2023-04-26T05:46:22.536Z,58.78
2023-04-26T05:47:22.498Z,58.45
2023-04-26T05:48:22.529Z,57.84
2023-04-26T05:49:22.477Z,58.45
2023-04-26T05:50:22.464Z,58.17
2023-04-26T05:51:22.454Z,58.58
2023-04-26T05:52:22.459Z,58.58
2023-04-26T05:53:22.458Z,58.48
2023-04-26T05:54:22.421Z,58.07
2023-04-26T05:55:22.417Z,58.37
2023-04-26T05:56:22.433Z,58.48
2023-04-26T05:57:22.460Z,58.61
2023-04-26T05:58:22.438Z,58.81
2023-04-26T05:59:22.390Z,59.01
2023-04-26T06:00:22.413Z,59.01
2023-04-26T06:01:22.348Z,58.70
2023-04-26T06:02:22.462Z,58.78
2023-04-26T06:03:22.619Z,58.34
2023-04-26T06:04:22.657Z,57.93
2023-04-26T06:05:22.437Z,58.14
2023-04-26T06:06:22.287Z,58.14
2023-04-26T06:07:22.273Z,57.40
2023-04-26T06:08:22.374Z,57.29
2023-04-26T06:09:22.253Z,57.40
2023-04-26T06:10:22.246Z,57.43
2023-04-26T06:11:22.282Z,57.29
2023-04-26T06:12:22.232Z,56.76
2023-04-26T06:13:22.245Z,56.76
2023-04-26T06:14:29.941Z,56.63
2023-04-26T06:15:23.242Z,55.71
2023-04-26T06:16:22.215Z,56.12
2023-04-26T06:17:22.223Z,55.28
2023-04-26T06:18:22.181Z,55.56
2023-04-26T06:19:22.147Z,54.24
2023-04-26T06:20:22.135Z,54.44
2023-04-26T06:21:22.138Z,54.61
2023-04-26T06:22:22.115Z,54.41
2023-04-26T06:23:22.114Z,54.54
2023-04-26T06:24:22.100Z,54.61
2023-04-26T06:25:22.084Z,53.90
2023-04-26T06:26:22.072Z,53.78
2023-04-26T06:27:22.075Z,53.78
2023-04-26T06:28:22.085Z,53.14
2023-04-26T06:29:22.042Z,53.02
2023-04-26T06:30:22.038Z,52.30
2023-04-26T06:31:22.145Z,52.91
2023-04-26T06:32:22.029Z,52.33
2023-04-26T06:33:22.021Z,52.17
2023-04-26T06:34:21.990Z,52.68
2023-04-26T06:35:21.979Z,52.08
2023-04-26T06:36:21.967Z,52.08
2023-04-26T06:37:21.982Z,52.37
2023-04-26T06:38:21.990Z,51.97
2023-04-26T06:39:21.929Z,51.77
2023-04-26T06:40:21.921Z,52.15
2023-04-26T06:41:21.917Z,51.54
2023-04-26T06:42:21.901Z,51.44
2023-04-26T06:43:21.910Z,51.42
2023-04-26T06:44:21.888Z,50.90
2023-04-26T06:45:21.919Z,50.37
2023-04-26T06:46:21.961Z,51.21
2023-04-26T06:47:21.883Z,51.39
2023-04-26T06:48:21.854Z,50.76
2023-04-26T06:49:21.824Z,50.43
2023-04-26T06:50:21.813Z,49.80
2023-04-26T06:51:21.890Z,50.02
2023-04-26T06:52:21.831Z,49.95
2023-04-26T06:53:23.193Z,49.62
2023-04-26T06:54:21.773Z,49.29
2023-04-26T06:55:21.768Z,48.35
2023-04-26T06:56:21.758Z,49.77
2023-04-26T06:57:21.734Z,48.43
2023-04-26T06:58:21.750Z,47.39
2023-04-26T06:59:21.727Z,47.80
2023-04-26T07:00:21.744Z,47.64
2023-04-26T07:01:21.719Z,47.34
2023-04-26T07:02:21.801Z,48.54
2023-04-26T07:03:21.843Z,48.21
2023-04-26T07:04:21.797Z,47.31
2023-04-26T07:05:21.835Z,47.31
2023-04-26T07:06:21.675Z,47.50
2023-04-26T07:07:21.634Z,47.19
2023-04-26T07:08:21.633Z,47.07
2023-04-26T07:09:21.609Z,47.80
2023-04-26T07:10:21.609Z,47.22
2023-04-26T07:11:22.831Z,47.62
2023-04-26T07:12:21.576Z,47.22
2023-04-26T07:13:21.629Z,46.48
2023-04-26T07:14:21.557Z,46.91
2023-04-26T07:15:21.569Z,47.82
2023-04-26T07:16:21.638Z,47.42
2023-04-26T07:17:21.523Z,47.47
2023-04-26T07:18:21.541Z,46.14
2023-04-26T07:19:21.707Z,45.51
2023-04-26T07:20:21.491Z,45.31
2023-04-26T07:21:21.497Z,45.59
2023-04-26T07:22:21.499Z,45.29
2023-04-26T07:23:21.498Z,44.88
2023-04-26T07:24:21.452Z,44.96
2023-04-26T07:25:21.437Z,44.84
2023-04-26T07:26:21.425Z,44.43
2023-04-26T07:27:21.414Z,44.23
2023-04-26T07:28:21.419Z,44.42
2023-04-26T07:29:21.402Z,43.48
2023-04-26T07:30:21.385Z,43.28
2023-04-26T07:31:21.378Z,42.38
2023-04-26T07:32:21.369Z,43.79
2023-04-26T07:33:21.614Z,43.46
2023-04-26T07:34:21.341Z,41.73
2023-04-26T07:35:21.371Z,42.11
2023-04-26T07:36:23.079Z,41.61
2023-04-26T07:37:21.309Z,41.81
2023-04-26T07:38:21.341Z,41.71
2023-04-26T07:39:21.287Z,41.71
2023-04-26T07:40:21.276Z,42.03
2023-04-26T07:41:21.280Z,43.00
2023-04-26T07:42:21.261Z,43.32
2023-04-26T07:43:21.284Z,43.51
2023-04-26T07:44:21.245Z,43.71
2023-04-26T07:45:21.271Z,43.91
2023-04-26T07:46:21.320Z,43.59
2023-04-26T07:47:21.224Z,43.79
2023-04-26T07:48:21.255Z,42.68
2023-04-26T07:49:21.201Z,43.30
2023-04-26T07:50:21.166Z,43.73
2023-04-26T07:51:21.184Z,44.27
2023-04-26T07:52:21.147Z,44.40
2023-04-26T07:53:21.152Z,45.15
2023-04-26T07:54:21.120Z,45.79
2023-04-26T07:55:21.106Z,46.53
2023-04-26T07:56:21.103Z,46.25
2023-04-26T07:57:21.108Z,46.25
2023-04-26T07:58:21.110Z,47.28
2023-04-26T07:59:21.067Z,47.30
2023-04-26T08:00:21.056Z,47.69
2023-04-26T08:01:21.044Z,46.33
2023-04-26T08:02:25.078Z,45.70
2023-04-26T08:03:22.227Z,45.45
2023-04-26T08:04:21.124Z,44.01
2023-04-26T08:05:21.191Z,44.76
2023-04-26T08:06:21.046Z,45.07
2023-04-26T08:07:21.087Z,45.31
2023-04-26T08:08:21.009Z,45.94
2023-04-26T08:09:20.960Z,46.12
2023-04-26T08:10:20.951Z,46.20
2023-04-26T08:11:20.988Z,45.04
2023-04-26T08:12:20.937Z,44.21
2023-04-26T08:13:20.928Z,44.48
2023-04-26T08:14:20.916Z,43.57
2023-04-26T08:15:20.890Z,43.16
2023-04-26T08:16:20.921Z,43.79
2023-04-26T08:17:20.882Z,44.44
2023-04-26T08:18:20.914Z,45.27
2023-04-26T08:19:20.849Z,46.22
2023-04-26T08:20:20.894Z,46.55
2023-04-26T08:21:20.827Z,46.27
2023-04-26T08:22:20.872Z,47.61
2023-04-26T08:23:20.843Z,48.14
2023-04-26T08:24:20.799Z,48.77
2023-04-26T08:25:20.786Z,48.08
2023-04-26T08:26:20.773Z,48.21
2023-04-26T08:27:20.764Z,48.41
2023-04-26T08:28:20.789Z,48.72
2023-04-26T08:29:20.755Z,49.20
2023-04-26T08:30:20.750Z,48.97
2023-04-26T08:31:20.753Z,48.06
2023-04-26T08:32:20.729Z,47.96
2023-04-26T08:33:20.743Z,48.77
2023-04-26T08:34:20.686Z,49.48
2023-04-26T08:35:20.676Z,48.77
2023-04-26T08:36:20.671Z,49.81
2023-04-26T08:37:20.655Z,49.81
2023-04-26T08:38:20.696Z,49.73
2023-04-26T08:39:20.659Z,51.06
2023-04-26T08:40:20.621Z,51.16
2023-04-26T08:41:20.611Z,50.87
2023-04-26T08:42:20.651Z,50.80
2023-04-26T08:43:20.614Z,51.53
2023-04-26T08:44:20.588Z,52.25
2023-04-26T08:45:20.611Z,52.55
2023-04-26T08:46:20.577Z,51.76
2023-04-26T08:47:20.547Z,52.58
2023-04-26T08:48:20.573Z,51.99
2023-04-26T08:49:20.528Z,52.27
2023-04-26T08:50:20.518Z,51.89
2023-04-26T08:51:20.505Z,51.68
2023-04-26T08:52:20.505Z,51.99
2023-04-26T08:53:20.505Z,51.99
2023-04-26T08:54:20.477Z,51.53
2023-04-26T08:55:20.777Z,50.62
2023-04-26T08:56:20.453Z,49.38
2023-04-26T08:57:20.441Z,47.30
2023-04-26T08:58:20.459Z,46.25
2023-04-26T08:59:20.435Z,45.67
2023-04-26T09:00:20.434Z,45.63
2023-04-26T09:01:20.435Z,44.01
2023-04-26T09:02:20.505Z,43.23
2023-04-26T09:03:20.468Z,44.24
2023-04-26T09:04:20.754Z,43.75
2023-04-26T09:05:20.352Z,43.44
2023-04-26T09:06:20.348Z,43.83
2023-04-26T09:07:20.332Z,43.32
2023-04-26T09:08:20.341Z,43.52
2023-04-26T09:09:20.321Z,43.93
2023-04-26T09:10:20.324Z,43.61
2023-04-26T09:11:20.329Z,43.43
2023-04-26T09:12:20.287Z,43.35
2023-04-26T09:13:20.314Z,43.37
2023-04-26T09:14:20.257Z,44.40
2023-04-26T09:15:20.269Z,44.30
2023-04-26T09:16:20.315Z,44.32
2023-04-26T09:17:20.243Z,44.24
2023-04-26T09:18:20.264Z,44.01
2023-04-26T09:19:20.204Z,44.95
2023-04-26T09:20:20.272Z,45.66
2023-04-26T09:21:20.184Z,45.36
2023-04-26T09:22:20.177Z,45.05
2023-04-26T09:23:20.219Z,45.68
2023-04-26T09:24:20.197Z,45.90
2023-04-26T09:25:20.139Z,46.01
2023-04-26T09:26:20.146Z,46.31
2023-04-26T09:27:20.150Z,47.63
2023-04-26T09:28:20.165Z,48.16
2023-04-26T09:29:20.100Z,47.98
2023-04-26T09:30:20.111Z,49.12
2023-04-26T09:31:20.088Z,49.33
2023-04-26T09:32:20.065Z,48.61
2023-04-26T09:33:20.129Z,49.25
2023-04-26T09:34:20.048Z,49.63
2023-04-26T09:35:20.036Z,49.73
2023-04-26T09:36:20.029Z,48.51
2023-04-26T09:37:20.018Z,48.51
2023-04-26T09:38:20.022Z,48.84
2023-04-26T09:39:19.993Z,48.31
2023-04-26T09:40:19.977Z,48.64
2023-04-26T09:41:19.966Z,49.35
2023-04-26T09:42:19.959Z,50.19
2023-04-26T09:43:19.983Z,49.58
2023-04-26T09:44:19.932Z,48.66
2023-04-26T09:45:19.935Z,50.09
2023-04-26T09:46:19.930Z,48.89
2023-04-26T09:47:20.033Z,48.58
2023-04-26T09:48:19.892Z,49.70
2023-04-26T09:49:19.886Z,48.11
2023-04-26T09:50:19.867Z,47.66
2023-04-26T09:51:19.858Z,46.88
2023-04-26T09:52:19.924Z,45.29
2023-04-26T09:53:19.836Z,44.74
2023-04-26T09:54:19.825Z,42.88
2023-04-26T09:55:34.075Z,42.54
2023-04-26T09:56:20.806Z,41.81
2023-04-26T09:57:19.803Z,40.78
2023-04-26T09:58:19.778Z,40.46
2023-04-26T09:59:19.874Z,40.94
2023-04-26T10:00:19.755Z,40.32
2023-04-26T10:01:19.804Z,39.45
2023-04-26T10:02:19.805Z,41.20
2023-04-26T10:03:19.930Z,39.61
2023-04-26T10:04:19.818Z,40.23
2023-04-26T10:05:19.712Z,40.17
2023-04-26T10:06:19.707Z,41.71
2023-04-26T10:07:19.689Z,41.72
2023-04-26T10:08:19.697Z,42.17
2023-04-26T10:09:19.663Z,43.20
2023-04-26T10:10:19.654Z,43.73
2023-04-26T10:11:19.651Z,43.84
2023-04-26T10:12:19.632Z,43.53
2023-04-26T10:13:19.648Z,44.67
2023-04-26T10:14:19.609Z,44.18
2023-04-26T10:15:19.628Z,43.67
2023-04-26T10:16:19.618Z,43.99
2023-04-26T10:17:19.593Z,43.08
2023-04-26T10:18:19.572Z,42.82
2023-04-26T10:19:19.565Z,42.27
2023-04-26T10:20:19.543Z,40.94
2023-04-26T10:21:19.533Z,41.85
2023-04-26T10:22:19.549Z,40.41
2023-04-26T10:23:19.517Z,39.60
2023-04-26T10:24:19.510Z,40.63
2023-04-26T10:25:19.497Z,40.94
2023-04-26T10:26:19.484Z,40.33
2023-04-26T10:27:19.496Z,40.43
2023-04-26T10:28:19.463Z,40.33
2023-04-26T10:29:19.449Z,41.05
2023-04-26T10:30:19.442Z,41.16
2023-04-26T10:31:19.488Z,40.99
2023-04-26T10:32:19.460Z,41.70
2023-04-26T10:33:19.485Z,42.25
2023-04-26T10:34:19.391Z,44.10
2023-04-26T10:35:19.388Z,43.41
2023-04-26T10:36:19.374Z,42.82
2023-04-26T10:37:19.378Z,43.43
2023-04-26T10:38:19.405Z,43.65
2023-04-26T10:39:19.343Z,44.18
2023-04-26T10:40:19.337Z,44.59
2023-04-26T10:41:19.329Z,44.71
2023-04-26T10:42:19.349Z,45.42
2023-04-26T10:43:19.330Z,45.01
2023-04-26T10:44:19.301Z,45.14
2023-04-26T10:45:26.931Z,45.65
2023-04-26T10:46:19.357Z,45.87
2023-04-26T10:47:19.424Z,46.08
2023-04-26T10:48:19.256Z,46.79
2023-04-26T10:49:19.237Z,46.38
2023-04-26T10:50:19.223Z,46.59
2023-04-26T10:51:19.211Z,46.48
2023-04-26T10:52:19.222Z,47.30
2023-04-26T10:53:19.190Z,47.09
2023-04-26T10:54:19.176Z,47.00
2023-04-26T10:55:19.168Z,46.36
2023-04-26T10:56:19.200Z,48.02
2023-04-26T10:57:19.166Z,48.11
2023-04-26T10:58:19.136Z,47.50
2023-04-26T10:59:36.147Z,47.71
2023-04-26T11:00:20.123Z,47.40
2023-04-26T11:01:19.172Z,47.40
2023-04-26T11:02:19.119Z,47.40
2023-04-26T11:03:19.281Z,47.91
2023-04-26T11:04:19.339Z,48.02
2023-04-26T11:05:19.058Z,48.42
2023-04-26T11:06:19.048Z,47.30
2023-04-26T11:07:19.053Z,46.47
2023-04-26T11:08:19.052Z,46.59
2023-04-26T11:09:19.018Z,46.48
2023-04-26T11:10:19.011Z,47.38
2023-04-26T11:11:18.992Z,47.79
2023-04-26T11:12:18.986Z,46.87
2023-04-26T11:13:19.002Z,46.89
2023-04-26T11:14:18.962Z,46.79
2023-04-26T11:15:18.979Z,47.20
2023-04-26T11:16:19.045Z,47.00
2023-04-26T11:17:18.942Z,47.00
2023-04-26T11:18:18.937Z,46.79
2023-04-26T11:19:18.969Z,47.40
2023-04-26T11:20:18.908Z,47.20
2023-04-26T11:21:18.929Z,48.02
2023-04-26T11:22:18.903Z,47.61
2023-04-26T11:23:18.878Z,47.58
2023-04-26T11:24:18.855Z,47.49
2023-04-26T11:25:18.848Z,48.10
2023-04-26T11:26:18.831Z,48.07
2023-04-26T11:27:18.945Z,47.77
2023-04-26T11:28:18.817Z,47.77
2023-04-26T11:29:18.813Z,47.56
2023-04-26T11:30:18.800Z,46.55
2023-04-26T11:31:18.852Z,46.55
2023-04-26T11:32:18.791Z,46.72
2023-04-26T11:33:18.793Z,46.42
2023-04-26T11:34:18.750Z,46.70
2023-04-26T11:35:18.751Z,45.99
2023-04-26T11:36:18.763Z,46.17
2023-04-26T11:37:18.750Z,45.67
2023-04-26T11:38:18.734Z,45.87
2023-04-26T11:39:18.692Z,46.07
2023-04-26T11:40:18.736Z,45.46
2023-04-26T11:41:18.683Z,45.48
2023-04-26T11:42:18.686Z,45.28
2023-04-26T11:43:18.701Z,45.79
2023-04-26T11:44:18.648Z,45.50
2023-04-26T11:45:18.636Z,46.22
2023-04-26T11:46:18.647Z,45.91
2023-04-26T11:47:18.604Z,46.32
2023-04-26T11:48:18.638Z,45.20
2023-04-26T11:49:18.584Z,45.71
2023-04-26T11:50:18.591Z,46.52
2023-04-26T11:51:18.624Z,46.75
2023-04-26T11:52:18.549Z,48.10
2023-04-26T11:53:18.555Z,48.10
2023-04-26T11:54:18.532Z,48.73
2023-04-26T11:55:18.526Z,49.44
2023-04-26T11:56:18.511Z,50.08
2023-04-26T11:57:18.554Z,50.08
2023-04-26T11:58:18.542Z,50.28
2023-04-26T11:59:18.490Z,49.67
2023-04-26T12:00:18.461Z,49.57
2023-04-26T12:01:18.456Z,49.77
2023-04-26T12:02:18.567Z,49.87
2023-04-26T12:03:18.694Z,50.08
2023-04-26T12:04:18.614Z,48.63
2023-04-26T12:05:18.440Z,48.14
2023-04-26T12:06:18.415Z,48.22
2023-04-26T12:07:18.425Z,48.11
2023-04-26T12:08:18.412Z,48.11
2023-04-26T12:09:18.366Z,46.28
2023-04-26T12:10:18.358Z,47.81
2023-04-26T12:11:18.348Z,46.87
2023-04-26T12:12:18.332Z,46.26
2023-04-26T12:13:18.338Z,46.36
2023-04-26T12:14:18.310Z,46.47
2023-04-26T12:15:18.351Z,46.47
2023-04-26T12:16:26.114Z,46.47
2023-04-26T12:17:19.394Z,45.83
2023-04-26T12:18:18.312Z,46.06
2023-04-26T12:19:18.257Z,46.56
2023-04-26T12:20:18.248Z,46.64
2023-04-26T12:21:18.238Z,46.55
2023-04-26T12:22:18.246Z,45.75
2023-04-26T12:23:18.250Z,45.45
2023-04-26T12:24:18.202Z,45.04
2023-04-26T12:25:18.221Z,45.24
2023-04-26T12:26:18.182Z,45.65
2023-04-26T12:27:18.187Z,45.54
2023-04-26T12:28:18.157Z,46.69
2023-04-26T12:29:18.145Z,46.56
2023-04-26T12:30:18.146Z,46.69
2023-04-26T12:31:18.142Z,46.47
2023-04-26T12:32:18.845Z,46.36
2023-04-26T12:33:18.235Z,46.69
2023-04-26T12:34:18.101Z,47.30
2023-04-26T12:35:18.084Z,47.50
2023-04-26T12:36:18.070Z,47.81
2023-04-26T12:37:18.065Z,47.73
2023-04-26T12:38:18.071Z,47.91
2023-04-26T12:39:18.071Z,48.75
2023-04-26T12:40:18.093Z,47.91
2023-04-26T12:41:18.021Z,48.02
2023-04-26T12:42:18.007Z,48.11
2023-04-26T12:43:18.014Z,48.34
2023-04-26T12:44:20.449Z,47.61
2023-04-26T12:45:17.974Z,47.50
2023-04-26T12:46:17.992Z,47.83
2023-04-26T12:47:17.952Z,48.42
2023-04-26T12:48:18.179Z,48.34
2023-04-26T12:49:17.974Z,48.22
2023-04-26T12:50:18.695Z,48.22
2023-04-26T12:51:17.910Z,48.30
2023-04-26T12:52:17.897Z,48.63
2023-04-26T12:53:17.900Z,48.32